createdAt,value
2018-07-11T00:00:13.855Z,99.90
2018-07-11T00:02:42.665Z,99.90
2018-07-11T00:05:11.688Z,99.90
2018-07-11T00:07:40.402Z,99.90
2018-07-11T00:10:15.105Z,99.90
2018-07-11T00:12:43.597Z,99.90
2018-07-11T00:15:12.240Z,99.90
2018-07-11T00:17:40.693Z,99.90
2018-07-11T00:20:09.743Z,99.90
2018-07-11T00:22:38.152Z,99.90
2018-07-11T00:25:06.639Z,99.90
2018-07-11T00:27:35.503Z,99.90
2018-07-11T00:30:04.667Z,99.90
2018-07-11T00:32:34.026Z,99.90
2018-07-11T00:35:02.735Z,99.90
2018-07-11T00:37:32.312Z,99.90
2018-07-11T00:40:01.413Z,99.90
2018-07-11T00:42:29.792Z,99.90
2018-07-11T00:44:58.279Z,99.90
2018-07-11T00:47:27.504Z,99.90
2018-07-11T00:49:55.844Z,99.90
2018-07-11T00:52:24.596Z,99.90
2018-07-11T00:54:54.386Z,99.90
2018-07-11T00:57:23.164Z,99.90
2018-07-11T00:59:52.551Z,99.90
2018-07-11T01:02:21.532Z,99.90
2018-07-11T01:04:50.214Z,99.90
2018-07-11T01:07:19.610Z,99.90
2018-07-11T01:09:49.751Z,99.90
2018-07-11T01:12:19.165Z,99.90
2018-07-11T01:14:49.517Z,99.90
2018-07-11T01:17:22.406Z,99.90
2018-07-11T01:19:51.483Z,99.90
2018-07-11T01:22:20.471Z,99.90
2018-07-11T01:24:49.114Z,99.90
2018-07-11T01:27:17.733Z,99.90
2018-07-11T01:29:46.214Z,99.90
2018-07-11T01:32:16.410Z,99.90
2018-07-11T01:34:47.679Z,99.90
2018-07-11T01:37:17.013Z,99.90
2018-07-11T01:39:46.179Z,99.90
2018-07-11T01:42:15.036Z,99.90
2018-07-11T01:44:43.766Z,99.90
2018-07-11T01:47:13.899Z,99.90
2018-07-11T01:49:42.228Z,99.90
2018-07-11T01:52:22.390Z,99.90
2018-07-11T01:54:51.306Z,99.90
2018-07-11T01:57:20.096Z,99.90
2018-07-11T01:59:49.044Z,99.90
2018-07-11T02:02:17.492Z,99.90
2018-07-11T02:04:46.405Z,99.90
2018-07-11T02:07:16.756Z,99.90
2018-07-11T02:09:45.926Z,99.90
2018-07-11T02:12:14.912Z,99.90
2018-07-11T02:14:48.197Z,99.90
2018-07-11T02:17:18.274Z,99.90
2018-07-11T02:19:48.740Z,99.90
2018-07-11T02:22:18.102Z,99.90
2018-07-11T02:24:48.675Z,99.90
2018-07-11T02:27:17.958Z,99.90
2018-07-11T02:29:46.924Z,99.90
2018-07-11T02:32:16.982Z,99.90
2018-07-11T02:34:46.875Z,99.90
2018-07-11T02:37:15.341Z,99.90
2018-07-11T02:39:44.862Z,99.90
2018-07-11T02:42:13.831Z,99.90
2018-07-11T02:44:43.938Z,99.90
2018-07-11T02:47:14.273Z,99.90
2018-07-11T02:49:43.742Z,99.90
2018-07-11T02:52:13.573Z,99.90
2018-07-11T02:54:42.564Z,99.90
2018-07-11T02:57:13.412Z,99.90
2018-07-11T02:59:42.269Z,99.90
2018-07-11T03:02:12.891Z,99.90
2018-07-11T03:04:41.780Z,99.90
2018-07-11T03:07:10.969Z,99.90
2018-07-11T03:09:41.360Z,99.90
2018-07-11T03:12:10.442Z,99.90
2018-07-11T03:14:42.041Z,99.90
2018-07-11T03:17:10.481Z,99.90
2018-07-11T03:19:40.101Z,99.90
2018-07-11T03:22:10.598Z,99.90
2018-07-11T03:24:39.084Z,99.90
2018-07-11T03:27:08.321Z,99.90
2018-07-11T03:29:36.676Z,99.90
2018-07-11T03:32:06.295Z,99.90
2018-07-11T03:34:35.350Z,99.90
2018-07-11T03:37:05.258Z,99.90
2018-07-11T03:39:34.217Z,99.90
2018-07-11T03:42:02.742Z,99.90
2018-07-11T03:44:31.245Z,99.90
2018-07-11T03:46:59.865Z,99.90
2018-07-11T03:49:29.124Z,99.90
2018-07-11T03:51:58.719Z,99.90
2018-07-11T03:54:27.179Z,99.90
2018-07-11T03:56:55.686Z,99.90
2018-07-11T03:59:24.122Z,99.90
2018-07-11T04:01:52.817Z,99.90
2018-07-11T04:04:21.966Z,99.90
2018-07-11T04:06:50.985Z,99.90
2018-07-11T04:09:19.891Z,99.90
2018-07-11T04:11:49.249Z,99.90
2018-07-11T04:14:18.696Z,99.90
2018-07-11T04:16:47.026Z,99.90
2018-07-11T04:19:16.337Z,99.90
2018-07-11T04:21:44.744Z,99.90
2018-07-11T04:24:14.557Z,99.90
2018-07-11T04:26:43.868Z,99.90
2018-07-11T04:29:12.355Z,99.90
2018-07-11T04:31:41.299Z,99.90
2018-07-11T04:34:10.744Z,99.90
2018-07-11T04:39:11.934Z,99.90
2018-07-11T04:41:40.895Z,99.90
2018-07-11T04:44:10.519Z,99.90
2018-07-11T04:46:40.621Z,99.90
2018-07-11T04:49:09.389Z,99.90
2018-07-11T04:51:38.434Z,99.90
2018-07-11T04:54:07.848Z,99.90
2018-07-11T04:56:37.545Z,99.90
2018-07-11T04:59:06.844Z,99.90
2018-07-11T05:01:36.077Z,99.90
2018-07-11T05:04:04.687Z,99.90
2018-07-11T05:06:33.936Z,99.90
2018-07-11T05:09:02.931Z,99.90
2018-07-11T05:11:31.413Z,99.90
2018-07-11T05:14:00.173Z,99.60
2018-07-11T05:16:30.931Z,98.90
2018-07-11T05:18:59.309Z,97.60
2018-07-11T05:21:27.747Z,97.50
2018-07-11T05:23:56.205Z,97.30
2018-07-11T05:26:24.875Z,96.70
2018-07-11T05:28:53.340Z,95.30
2018-07-11T05:31:22.204Z,94.90
2018-07-11T05:33:50.992Z,94.40
2018-07-11T05:36:19.733Z,93.90
2018-07-11T05:38:48.202Z,93.20
2018-07-11T05:41:16.845Z,83.50
2018-07-11T05:43:46.398Z,71.40
2018-07-11T05:46:15.030Z,71.70
2018-07-11T05:48:43.562Z,66.40
2018-07-11T05:51:12.073Z,58.30
2018-07-11T05:53:40.512Z,59.10
2018-07-11T05:56:10.044Z,47.50
2018-07-11T05:58:38.570Z,47.10
2018-07-11T06:01:07.107Z,42.80
2018-07-11T06:03:35.654Z,37.20
2018-07-11T06:06:04.569Z,39.40
2018-07-11T06:08:33.028Z,34.90
2018-07-11T06:13:29.506Z,56.60
2018-07-11T06:15:57.942Z,61.20
2018-07-11T06:18:26.362Z,56.60
2018-07-11T06:20:54.704Z,49.30
2018-07-11T06:23:23.272Z,36.50
2018-07-11T06:25:51.736Z,34.30
2018-07-11T06:28:20.202Z,30.30
2018-07-11T06:30:48.917Z,29.00
2018-07-11T06:33:17.763Z,30.00
2018-07-11T06:35:46.456Z,34.60
2018-07-11T06:38:15.356Z,27.80
2018-07-11T06:40:45.186Z,25.80
2018-07-11T06:43:13.566Z,24.70
2018-07-11T06:45:41.886Z,26.50
2018-07-11T06:48:10.592Z,26.10
2018-07-11T06:50:38.988Z,26.30
2018-07-11T06:53:07.463Z,24.20
2018-07-11T06:55:35.963Z,24.70
2018-07-11T06:58:04.406Z,26.10
2018-07-11T07:00:32.764Z,21.30
2018-07-11T07:03:01.845Z,19.20
2018-07-11T07:05:31.237Z,17.00
2018-07-11T07:07:59.693Z,15.20
2018-07-11T07:10:28.930Z,18.80
2018-07-11T07:12:57.410Z,24.00
2018-07-11T07:15:26.097Z,27.30
2018-07-11T07:17:54.510Z,30.50
2018-07-11T07:20:24.095Z,29.70
2018-07-11T07:22:52.531Z,34.80
2018-07-11T07:25:21.172Z,36.30
2018-07-11T07:27:50.044Z,33.60
2018-07-11T07:30:19.732Z,31.80
2018-07-11T07:32:48.298Z,29.50
2018-07-11T07:35:17.176Z,33.90
2018-07-11T07:37:45.650Z,34.80
2018-07-11T07:40:14.173Z,36.30
2018-07-11T07:42:42.667Z,39.90
2018-07-11T07:45:11.032Z,37.90
2018-07-11T07:47:43.608Z,36.40
2018-07-11T07:50:12.319Z,33.90
2018-07-11T07:52:41.772Z,33.40
2018-07-11T07:55:11.127Z,34.70
2018-07-11T07:57:40.292Z,31.00
2018-07-11T08:00:08.858Z,31.30
2018-07-11T08:02:37.294Z,33.20
2018-07-11T08:05:07.092Z,29.70
2018-07-11T08:07:36.705Z,28.20
2018-07-11T08:10:05.741Z,28.10
2018-07-11T08:12:34.465Z,28.10
2018-07-11T08:15:02.978Z,28.00
2018-07-11T08:17:31.462Z,31.30
2018-07-11T08:20:00.026Z,33.60
2018-07-11T08:22:37.227Z,32.80
2018-07-11T08:25:14.497Z,32.40
2018-07-11T08:32:56.998Z,28.80
2018-07-11T08:35:34.203Z,28.40
2018-07-11T08:38:11.427Z,27.40
2018-07-11T08:40:48.690Z,27.20
2018-07-11T08:43:26.471Z,26.20
2018-07-11T08:46:03.667Z,26.30
2018-07-11T08:48:40.549Z,25.30
2018-07-11T08:51:18.072Z,27.20
2018-07-11T08:53:55.386Z,28.30
2018-07-11T08:56:32.682Z,28.10
2018-07-11T08:59:09.941Z,29.50
2018-07-11T09:04:20.265Z,28.60
2018-07-11T09:06:57.564Z,29.20
2018-07-11T09:09:34.768Z,27.90
2018-07-11T09:12:12.226Z,26.80
2018-07-11T09:14:49.492Z,25.60
2018-07-11T09:17:26.784Z,27.00
2018-07-11T09:20:04.128Z,25.70
2018-07-11T09:22:40.579Z,26.90
2018-07-11T09:25:09.092Z,26.40
2018-07-11T09:27:37.603Z,28.20
2018-07-11T09:30:06.514Z,29.60
2018-07-11T09:32:37.805Z,29.80
2018-07-11T09:35:08.284Z,30.90
2018-07-11T09:37:37.861Z,32.90
2018-07-11T09:40:06.573Z,33.00
2018-07-11T09:42:35.811Z,34.40
2018-07-11T09:45:04.137Z,35.20
2018-07-11T09:47:33.746Z,35.90
2018-07-11T09:50:02.488Z,35.00
2018-07-11T09:52:31.463Z,33.90
2018-07-11T09:55:01.385Z,34.10
2018-07-11T09:57:30.404Z,35.10
2018-07-11T09:59:59.022Z,36.80
2018-07-11T10:02:27.653Z,36.30
2018-07-11T10:04:56.569Z,35.80
2018-07-11T10:07:26.161Z,34.00
2018-07-11T10:09:54.798Z,34.00
2018-07-11T10:12:24.590Z,34.10
2018-07-11T10:14:54.124Z,32.90
2018-07-11T10:17:23.424Z,32.00
2018-07-11T10:19:52.050Z,31.50
2018-07-11T10:22:22.113Z,32.80
2018-07-11T10:24:50.597Z,34.20
2018-07-11T10:27:19.299Z,33.10
2018-07-11T10:29:47.807Z,33.30
2018-07-11T10:32:16.528Z,32.90
2018-07-11T10:34:45.718Z,32.50
2018-07-11T10:37:14.197Z,32.40
2018-07-11T10:39:42.652Z,33.70
2018-07-11T10:42:11.173Z,34.60
2018-07-11T10:44:39.560Z,35.50
2018-07-11T10:47:12.207Z,37.30
2018-07-11T10:49:42.436Z,37.50
2018-07-11T10:52:12.169Z,37.70
2018-07-11T10:54:40.685Z,37.80
2018-07-11T10:57:11.037Z,36.40
2018-07-11T10:59:39.897Z,34.70
2018-07-11T11:02:09.641Z,34.30
2018-07-11T11:04:38.863Z,33.00
2018-07-11T11:07:08.921Z,34.10
2018-07-11T11:09:38.317Z,33.90
2018-07-11T11:12:07.837Z,34.50
2018-07-11T11:14:36.496Z,33.10
2018-07-11T11:17:05.573Z,34.70
2018-07-11T11:19:34.565Z,37.70
2018-07-11T11:22:03.566Z,38.50
2018-07-11T11:24:32.978Z,44.30
2018-07-11T11:27:02.232Z,49.50
2018-07-11T11:29:32.494Z,57.50
2018-07-11T11:32:02.225Z,60.50
2018-07-11T11:34:33.827Z,68.30
2018-07-11T11:37:03.788Z,80.40
2018-07-11T11:39:35.477Z,95.40
2018-07-11T11:42:06.840Z,99.30
2018-07-11T11:44:36.319Z,99.90
2018-07-11T11:47:06.309Z,99.90
2018-07-11T11:49:35.849Z,99.90
2018-07-11T11:52:05.247Z,99.90
2018-07-11T11:54:34.478Z,99.90
2018-07-11T11:57:02.887Z,99.90
2018-07-11T11:59:33.114Z,99.90
2018-07-11T12:02:01.798Z,99.90
2018-07-11T12:04:30.637Z,99.90
2018-07-11T12:06:59.909Z,99.90
2018-07-11T12:09:30.685Z,99.90
2018-07-11T12:12:02.619Z,99.90
2018-07-11T12:14:31.613Z,99.90
2018-07-11T12:17:01.743Z,99.90
2018-07-11T12:19:33.430Z,99.90
2018-07-11T12:22:04.617Z,99.90
2018-07-11T12:24:33.243Z,99.90
2018-07-11T12:27:02.305Z,99.90
2018-07-11T12:29:31.203Z,99.90
2018-07-11T12:32:00.021Z,99.90
2018-07-11T12:34:30.307Z,99.90
2018-07-11T12:36:59.425Z,99.90
2018-07-11T12:39:28.279Z,99.90
2018-07-11T12:41:57.493Z,99.90
2018-07-11T12:44:26.106Z,99.90
2018-07-11T12:46:55.891Z,99.90
2018-07-11T12:49:25.069Z,99.90
2018-07-11T12:51:55.216Z,99.90
2018-07-11T12:54:24.311Z,99.90
2018-07-11T12:56:56.652Z,99.90
2018-07-11T12:59:25.328Z,99.90
2018-07-11T13:01:53.767Z,99.90
2018-07-11T13:04:24.396Z,99.90
2018-07-11T13:06:53.505Z,99.90
2018-07-11T13:09:22.238Z,99.90
2018-07-11T13:11:51.332Z,99.90
2018-07-11T13:14:20.658Z,99.90
2018-07-11T13:16:50.053Z,99.90
2018-07-11T13:19:18.472Z,99.90
2018-07-11T13:21:47.468Z,99.90
2018-07-11T13:24:16.503Z,99.90
2018-07-11T13:26:45.396Z,99.90
2018-07-11T13:29:14.957Z,99.90
2018-07-11T13:31:44.727Z,99.90
2018-07-11T13:34:25.682Z,99.90
2018-07-11T13:36:56.398Z,99.90
2018-07-11T13:39:24.871Z,99.90
2018-07-11T13:41:54.262Z,99.90
2018-07-11T13:44:23.092Z,99.90
2018-07-11T13:46:52.090Z,99.90
2018-07-11T13:49:22.862Z,99.90
2018-07-11T13:51:51.246Z,99.90
2018-07-11T13:54:21.553Z,99.90
2018-07-11T13:56:51.223Z,99.90
2018-07-11T13:59:20.936Z,99.90
2018-07-11T14:01:49.992Z,99.90
2018-07-11T14:04:20.462Z,99.90
2018-07-11T14:06:50.284Z,99.90
2018-07-11T14:09:19.466Z,99.90
2018-07-11T14:11:48.367Z,99.90
2018-07-11T14:14:18.113Z,99.90
2018-07-11T14:16:48.805Z,99.90
2018-07-11T14:19:17.949Z,99.90
2018-07-11T14:21:47.853Z,99.90
2018-07-11T14:24:19.744Z,99.90
2018-07-11T14:26:49.354Z,99.90
2018-07-11T14:29:21.242Z,99.90
2018-07-11T14:31:52.093Z,99.90
2018-07-11T14:34:21.994Z,99.90
2018-07-11T14:36:51.219Z,99.90
2018-07-11T14:39:19.884Z,99.90
2018-07-11T14:41:48.982Z,99.90
2018-07-11T14:44:18.004Z,99.90
2018-07-11T14:46:47.126Z,99.90
2018-07-11T14:49:17.711Z,99.90
2018-07-11T14:51:46.758Z,99.90
2018-07-11T14:54:16.530Z,99.90
2018-07-11T14:56:45.415Z,99.90
2018-07-11T14:59:14.846Z,99.90
2018-07-11T15:01:45.347Z,99.90
2018-07-11T15:04:14.105Z,99.90
2018-07-11T15:06:43.351Z,99.90
2018-07-11T15:09:14.741Z,99.90
2018-07-11T15:11:43.436Z,99.90
2018-07-11T15:14:11.933Z,99.90
2018-07-11T15:16:40.320Z,99.90
2018-07-11T15:19:08.968Z,99.90
2018-07-11T15:21:38.192Z,99.90
2018-07-11T15:24:08.440Z,99.90
2018-07-11T15:26:38.281Z,99.90
2018-07-11T15:29:07.911Z,99.90
2018-07-11T15:31:40.146Z,99.90
2018-07-11T15:34:11.880Z,99.90
2018-07-11T15:36:41.157Z,99.90
2018-07-11T15:39:10.539Z,99.90
2018-07-11T15:41:39.867Z,99.90
2018-07-11T15:44:09.427Z,99.90
2018-07-11T15:46:41.447Z,99.90
2018-07-11T15:49:11.392Z,99.90
2018-07-11T15:51:40.247Z,99.90
2018-07-11T15:54:09.289Z,99.90
2018-07-11T15:56:39.734Z,99.90
2018-07-11T15:59:10.333Z,99.90
2018-07-11T16:01:45.220Z,99.90
2018-07-11T16:04:22.846Z,99.90
2018-07-11T16:06:51.846Z,99.90
2018-07-11T16:09:22.304Z,99.90
2018-07-11T16:11:51.455Z,99.90
2018-07-11T16:14:20.466Z,99.90
2018-07-11T16:16:50.071Z,99.90
2018-07-11T16:19:18.784Z,99.90
2018-07-11T16:21:47.797Z,99.90
2018-07-11T16:24:16.403Z,99.90
2018-07-11T16:26:45.400Z,99.90
2018-07-11T16:29:16.901Z,99.90
2018-07-11T16:31:46.740Z,99.90
2018-07-11T16:34:16.159Z,99.90
2018-07-11T16:36:47.077Z,99.90
2018-07-11T16:39:17.236Z,99.90
2018-07-11T16:41:45.669Z,99.90
2018-07-11T16:44:16.041Z,99.90
2018-07-11T16:46:44.920Z,99.90
2018-07-11T16:49:17.637Z,99.90
2018-07-11T16:51:47.816Z,99.90
2018-07-11T16:54:17.098Z,99.90
2018-07-11T16:56:45.491Z,99.90
2018-07-11T16:59:17.385Z,99.90
2018-07-11T17:01:52.987Z,99.90
2018-07-11T17:04:23.206Z,99.90
2018-07-11T17:06:54.769Z,99.90
2018-07-11T17:09:24.616Z,99.90
2018-07-11T17:11:53.504Z,99.90
2018-07-11T17:14:22.916Z,99.90
2018-07-11T17:17:01.032Z,99.90
2018-07-11T17:19:37.664Z,99.90
2018-07-11T17:22:07.926Z,99.90
2018-07-11T17:24:46.232Z,99.90
2018-07-11T17:27:18.402Z,99.90
2018-07-11T17:29:48.385Z,99.90
2018-07-11T17:32:18.109Z,99.90
2018-07-11T17:34:47.569Z,99.90
2018-07-11T17:37:18.786Z,99.90
2018-07-11T17:39:54.538Z,99.90
2018-07-11T17:42:28.440Z,99.90
2018-07-11T17:45:07.296Z,99.90
2018-07-11T17:47:47.508Z,99.90
2018-07-11T17:50:16.654Z,99.90
2018-07-11T17:52:54.810Z,99.90
2018-07-11T17:55:29.547Z,99.90
2018-07-11T17:58:06.761Z,99.90
2018-07-11T18:00:43.199Z,99.90
2018-07-11T18:03:23.481Z,99.90
2018-07-11T18:06:00.679Z,99.90
2018-07-11T18:08:36.488Z,99.90
2018-07-11T18:11:05.125Z,99.90
2018-07-11T18:13:42.840Z,99.90
2018-07-11T18:16:20.299Z,99.90
2018-07-11T18:18:57.771Z,99.90
2018-07-11T18:21:35.937Z,99.90
2018-07-11T18:24:10.926Z,99.90
2018-07-11T18:26:48.047Z,99.90
2018-07-11T18:29:26.327Z,99.90
2018-07-11T18:32:04.782Z,99.90
2018-07-11T18:34:42.208Z,99.90
2018-07-11T18:37:20.859Z,99.90
2018-07-11T18:39:58.297Z,99.90
2018-07-11T18:42:35.130Z,99.90
2018-07-11T18:45:13.641Z,99.90
2018-07-11T18:47:53.587Z,99.90
2018-07-11T18:50:28.997Z,99.90
2018-07-11T18:53:04.347Z,99.90
2018-07-11T18:58:13.568Z,99.90
2018-07-11T19:00:48.516Z,99.90
2018-07-11T19:03:25.825Z,99.90
2018-07-11T19:06:03.977Z,99.90
2018-07-11T19:08:41.565Z,99.90
2018-07-11T19:11:17.796Z,99.90
2018-07-11T19:13:48.225Z,99.90
2018-07-11T19:16:21.548Z,99.90
2018-07-11T19:18:56.901Z,99.90
2018-07-11T19:21:31.645Z,99.90
2018-07-11T19:24:03.791Z,99.90
2018-07-11T19:26:39.943Z,99.90
2018-07-11T19:29:17.194Z,99.90
2018-07-11T19:32:01.891Z,99.90
2018-07-11T19:34:39.557Z,99.90
2018-07-11T19:37:18.052Z,99.90
2018-07-11T19:39:54.806Z,99.90
2018-07-11T19:42:35.143Z,99.90
2018-07-11T19:45:14.981Z,99.90
2018-07-11T19:47:54.403Z,99.90
2018-07-11T19:50:34.716Z,99.90
2018-07-11T19:53:13.508Z,99.90
2018-07-11T19:55:51.985Z,99.90
2018-07-11T19:58:21.093Z,99.90
2018-07-11T20:03:29.362Z,99.90
2018-07-11T20:06:11.668Z,99.90
2018-07-11T20:08:46.432Z,99.90
2018-07-11T20:11:16.200Z,99.90
2018-07-11T20:13:45.564Z,99.90
2018-07-11T20:16:15.239Z,99.90
2018-07-11T20:18:52.419Z,99.90
2018-07-11T20:21:25.545Z,99.90
2018-07-11T20:23:57.968Z,99.90
2018-07-11T20:26:34.149Z,99.90
2018-07-11T20:29:04.916Z,99.90
2018-07-11T20:31:41.822Z,99.90
2018-07-11T20:34:10.993Z,99.90
2018-07-11T20:36:39.538Z,99.90
2018-07-11T20:39:08.293Z,99.90
2018-07-11T20:41:38.766Z,99.90
2018-07-11T20:44:07.454Z,99.90
2018-07-11T20:46:36.431Z,99.90
2018-07-11T20:49:09.537Z,99.90
2018-07-11T20:51:37.909Z,99.90
2018-07-11T20:54:06.581Z,99.90
2018-07-11T20:56:35.829Z,99.90
2018-07-11T20:59:13.123Z,99.90
2018-07-11T21:01:50.398Z,99.90
2018-07-11T21:04:27.625Z,99.90
2018-07-11T21:07:05.817Z,99.90
2018-07-11T21:09:43.195Z,99.90
2018-07-11T21:12:20.515Z,99.90
2018-07-11T21:14:56.496Z,99.90
2018-07-11T21:17:34.423Z,99.90
2018-07-11T21:20:04.451Z,99.90
2018-07-11T21:25:02.821Z,99.90
2018-07-11T21:27:32.001Z,99.90
2018-07-11T21:30:03.599Z,99.90
2018-07-11T21:32:32.758Z,99.90
2018-07-11T21:35:06.557Z,99.90
2018-07-11T21:37:36.817Z,99.90
2018-07-11T21:40:05.415Z,99.90
2018-07-11T21:42:34.640Z,99.90
2018-07-11T21:45:03.882Z,99.90
2018-07-11T21:47:34.053Z,99.90
2018-07-11T21:50:03.666Z,99.90
2018-07-11T21:52:32.116Z,99.90
2018-07-11T21:55:01.027Z,99.90
2018-07-11T21:57:30.315Z,99.90
2018-07-11T21:59:58.753Z,99.90
2018-07-11T22:02:27.295Z,99.90
2018-07-11T22:04:56.985Z,99.90
2018-07-11T22:07:25.819Z,99.90
2018-07-11T22:09:55.148Z,99.90
2018-07-11T22:12:23.938Z,99.90
2018-07-11T22:14:52.414Z,99.90
2018-07-11T22:17:30.430Z,99.90
2018-07-11T22:19:58.540Z,99.90
2018-07-11T22:22:26.713Z,99.90
2018-07-11T22:24:54.060Z,99.90
2018-07-11T22:27:21.648Z,99.90
2018-07-11T22:29:49.446Z,99.90
2018-07-11T22:32:17.450Z,99.90
2018-07-11T22:34:44.812Z,99.90
2018-07-11T22:37:12.172Z,99.90
2018-07-11T22:39:39.491Z,99.90
2018-07-11T22:42:07.205Z,99.90
2018-07-11T22:44:34.624Z,99.90
2018-07-11T22:47:01.989Z,99.90
2018-07-11T22:49:30.032Z,99.90
2018-07-11T22:51:57.313Z,99.90
2018-07-11T22:54:24.711Z,99.90
2018-07-11T22:56:52.013Z,99.90
2018-07-11T22:59:19.446Z,99.90
2018-07-11T23:01:46.865Z,99.90
2018-07-11T23:04:14.177Z,99.90
2018-07-11T23:06:41.496Z,99.90
2018-07-11T23:09:08.883Z,99.90
2018-07-11T23:11:36.178Z,99.90
2018-07-11T23:14:03.586Z,99.90
2018-07-11T23:16:30.960Z,99.90
2018-07-11T23:18:58.350Z,99.90
2018-07-11T23:21:25.999Z,99.90
2018-07-11T23:23:54.149Z,99.90
2018-07-11T23:26:21.454Z,99.90
2018-07-11T23:28:50.188Z,99.90
2018-07-11T23:31:17.433Z,99.90
2018-07-11T23:33:45.646Z,99.90
2018-07-11T23:36:12.969Z,99.90
2018-07-11T23:38:40.963Z,99.90
2018-07-11T23:41:08.326Z,99.90
2018-07-11T23:43:35.649Z,99.90
2018-07-11T23:46:03.099Z,99.90
2018-07-11T23:48:30.409Z,99.90
2018-07-11T23:50:59.645Z,99.90
2018-07-11T23:53:28.822Z,99.90
2018-07-11T23:55:56.173Z,99.90
2018-07-11T23:58:23.850Z,99.90
